フィレンツェ・ペレトラ空港の過去48時間の天気

フィレンツェ・ペレトラ空港 (Firenze / Peretola)

現在時刻: 8/18 05:17 CEST (8/18 03:17 UTC) 以下の時間は現地時間です。

過去48時間のMETAR気象情報
時間 風向 風速(m/s) 視程 気温(℃) 湿度(%) 気圧(hPa) 天気現象
18 04:50 1 10km以上 19 83 1015
18 04:20 不定 1 10km以上 20 78 1015
18 03:50 不定 1 10km以上 21 73 1015
18 03:20 不定 1 10km以上 19 83 1015
18 02:50 東南東 2 10km以上 22 69 1015
18 02:20 2 10km以上 21 73 1015
18 01:50 3 10km以上 21 73 1015
18 01:20 2 10km以上 22 69 1015
18 00:50 3 10km以上 22 69 1015
18 00:20 3 10km以上 23 65 1015
17 23:50 南東 3 10km以上 25 61 1015
17 23:20 不定 1 10km以上 23 65 1014
17 22:50 不定 1 10km以上 24 61 1014
17 22:20 西南西 2 10km以上 26 54 1014
17 21:50 南南西 2 10km以上 26 51 1014
17 21:20 不定 1 10km以上 27 45 1013
17 20:50 西北西 3 10km以上 26 51 1013
17 20:20 北西 2 10km以上 28 45 1013
17 19:50 西北西 3 10km以上 30 40 1013
17 19:20 西 3 10km以上 31 33 1012
17 18:50 西 2 10km以上 33 28 1012
17 18:20 南西 3 10km以上 33 26 1012
17 17:50 不定 1 10km以上 33 26 1012
17 17:20 3 10km以上 33 28 1012
17 16:50 不定 2 10km以上 33 26 1012
17 16:20 不定 2 10km以上 33 26 1012
17 15:50 4 10km以上 33 24 1013
17 15:20 2 10km以上 33 24 1013
17 14:50 不定 2 10km以上 33 26 1013
17 14:20 不定 2 10km以上 32 28 1014
17 13:50 西北西 3 10km以上 31 29 1014
17 12:50 北西 2 10km以上 31 33 1014
17 12:20 北北西 2 10km以上 30 33 1014
17 11:50 不定 2 10km以上 29 35 1015
17 11:20 西南西 2 10km以上 28 42 1015
17 10:50 南南西 2 10km以上 27 45 1015
17 10:20 不定 1 10km以上 25 50 1015
17 09:50 不定 1 10km以上 24 54 1015
17 09:20 不定 1 10km以上 23 61 1015
17 08:50 不定 1 10km以上 22 60 1015
17 08:20 不定 1 10km以上 21 69 1015
17 07:50 不定 1 10km以上 19 78 1015
17 07:20 不定 1 10km以上 18 77 1015
17 06:50 東北東 2 10km以上 16 88 1014
17 06:20 東北東 1 10km以上 16 88 1014
17 05:50 1 10km以上 17 83 1014
17 05:20 不定 1 10km以上 16 88 1014
17 04:50 東北東 2 10km以上 17 83 1014
17 04:20 不定 2 10km以上 17 83 1014
17 03:50 不定 1 10km以上 20 68 1014
17 03:20 不定 1 10km以上 19 73 1014
17 02:50 南南西 2 10km以上 21 69 1014
17 02:20 不定 2 10km以上 19 78 1014
17 01:50 不定 1 10km以上 21 69 1014
17 01:20 不定 1 10km以上 20 73 1014
17 00:50 不定 1 10km以上 22 60 1014
17 00:20 南東 2 10km以上 23 57 1014
16 23:50 不定 2 10km以上 21 69 1014
16 23:20 北北西 2 10km以上 21 69 1014
16 22:50 不定 1 10km以上 23 61 1014
16 22:20 北北東 2 10km以上 23 61 1014
16 21:50 不定 1 10km以上 25 54 1014
LIRQ 180250Z 17002KT CAVOK 19/16 Q1015
LIRQ 180220Z VRB01KT CAVOK 20/16 Q1015
LIRQ 180150Z VRB01KT CAVOK 21/16 Q1015
LIRQ 180120Z VRB02KT CAVOK 19/16 Q1015
LIRQ 180050Z 11004KT CAVOK 22/16 Q1015
LIRQ 180020Z 08004KT CAVOK 21/16 Q1015
LIRQ 172350Z 10005KT CAVOK 21/16 Q1015
LIRQ 172320Z 09004KT CAVOK 22/16 Q1015
LIRQ 172250Z 08006KT CAVOK 22/16 Q1015
LIRQ 172220Z 09005KT CAVOK 23/16 Q1015
LIRQ 172150Z 14005KT CAVOK 25/17 Q1015
LIRQ 172120Z VRB02KT CAVOK 23/16 Q1014
LIRQ 172050Z VRB02KT CAVOK 24/16 Q1014
LIRQ 172020Z 24004KT 190V290 CAVOK 26/16 Q1014
LIRQ 171950Z 21004KT CAVOK 26/15 Q1014
LIRQ 171920Z VRB02KT CAVOK 27/14 Q1013
LIRQ 171850Z 30005KT CAVOK 26/15 Q1013
LIRQ 171820Z 32004KT CAVOK 28/15 Q1013
LIRQ 171750Z 29005KT 240V310 9999 FEW080 30/15 Q1013
LIRQ 171720Z 28005KT 9999 FEW050 31/13 Q1012
LIRQ 171650Z 27003KT 240V300 9999 FEW050 33/12 Q1012
LIRQ 171620Z 22006KT 180V270 9999 FEW050 33/11 Q1012
LIRQ 171550Z VRB02KT 9999 FEW050 33/11 Q1012
LIRQ 171520Z VRB05KT 9999 FEW050 33/12 Q1012
LIRQ 171450Z VRB03KT 9999 FEW050 33/11 Q1012
LIRQ 171420Z VRB03KT 9999 FEW050 33/11 Q1012
LIRQ 171350Z 17007KT 140V230 9999 FEW050 33/10 Q1013
LIRQ 171320Z 18004KT 060V220 9999 FEW050 33/10 Q1013
LIRQ 171250Z VRB04KT 9999 FEW050 33/11 Q1013
LIRQ 171220Z VRB03KT CAVOK 32/11 Q1014
LIRQ 171150Z 30005KT 250V030 CAVOK 31/11 Q1014
LIRQ 171050Z 31004KT 250V010 CAVOK 31/13 Q1014
LIRQ 171020Z 34004KT 280V020 CAVOK 30/12 Q1014
LIRQ 170950Z VRB03KT CAVOK 29/12 Q1015
LIRQ 170920Z 24003KT 200V330 CAVOK 28/14 Q1015
LIRQ 170850Z 20003KT 120V290 CAVOK 27/14 Q1015
LIRQ 170820Z VRB02KT CAVOK 25/14 Q1015
LIRQ 170750Z VRB01KT CAVOK 24/14 Q1015
LIRQ 170720Z VRB02KT CAVOK 23/15 Q1015
LIRQ 170650Z VRB02KT CAVOK 22/14 Q1015
LIRQ 170620Z VRB01KT CAVOK 21/15 Q1015
LIRQ 170550Z VRB01KT CAVOK 19/15 Q1015
LIRQ 170520Z VRB01KT CAVOK 18/14 Q1015
LIRQ 170450Z 06003KT CAVOK 16/14 Q1014
LIRQ 170420Z 07002KT CAVOK 16/14 Q1014
LIRQ 170350Z 08001KT CAVOK 17/14 Q1014
LIRQ 170320Z VRB01KT CAVOK 16/14 Q1014
LIRQ 170250Z 07003KT CAVOK 17/14 Q1014
LIRQ 170220Z VRB03KT CAVOK 17/14 Q1014
LIRQ 170150Z VRB02KT CAVOK 20/14 Q1014
LIRQ 170120Z VRB02KT CAVOK 19/14 Q1014
LIRQ 170050Z 20003KT CAVOK 21/15 Q1014
LIRQ 170020Z VRB03KT CAVOK 19/15 Q1014
LIRQ 162350Z VRB01KT CAVOK 21/15 Q1014
LIRQ 162320Z VRB01KT CAVOK 20/15 Q1014
LIRQ 162250Z VRB02KT CAVOK 22/14 Q1014
LIRQ 162220Z 14003KT CAVOK 23/14 Q1014
LIRQ 162150Z VRB03KT CAVOK 21/15 Q1014
LIRQ 162120Z 33003KT 300V010 CAVOK 21/15 Q1014
LIRQ 162050Z VRB02KT CAVOK 23/15 Q1014
LIRQ 162020Z 02003KT 290V080 CAVOK 23/15 Q1014
LIRQ 161950Z VRB02KT CAVOK 25/15 Q1014